Jrs Merkur — V2FD8 — position and weather

sailwx.info

Track history (hours):
 
Tides and Currents Weather Stations Pressure Air Temp Water Temp Dewpoint Dewpoint Depression Visibility Wind Speed Wind Dir Waves Ship Positions

Jrs Merkur

Last reported at 2014-Nov-22 19:16 UTC. Time now 2014-Nov-26 21:24 UTC.
Position N 35°60' W 005°11'.

Length 107 m; draft 8.3 m.

Type: Cargo ship. MMSI: 305644000.

Date/timePositionNaut miles runAvg speedWind from/ knotsBaromVisibWave heightAir tempDewpointWater temp
2014-Nov-22 19:16N 35°60' W 005°11'7 9.7
2014-Nov-22 18:33N 35°59' W 005°20'251 7.8
2014-Nov-21 10:24N 38°02' W 009°55'  
2014-Nov-14 05:32N 43°41' W 005°57'0 0.3
2014-Nov-14 04:32N 43°41' W 005°56'4 4.2
2014-Nov-14 03:29N 43°43' W 006°02'1 1.1
2014-Nov-14 02:26N 43°43' W 006°03'2 1.9
2014-Nov-14 01:34N 43°42' W 006°01'2 2.0
2014-Nov-14 00:31N 43°41' W 005°59'1 1.3
2014-Nov-13 23:25N 43°40' W 005°57'222 8.9
2014-Nov-12 22:33N 46°01' W 001°55'8 7.8
2014-Nov-12 21:34N 46°06' W 001°46'8 7.3
2014-Nov-12 20:24N 46°08' W 001°34'8 8.9
2014-Nov-12 19:33N 46°07' W 001°23'  
Track history (hours):
 
Tides and Currents Weather Stations Pressure Air Temp Water Temp Dewpoint Dewpoint Depression Visibility Wind Speed Wind Dir Waves Ship Positions

Jrs Merkur

Last reported at 2014-Nov-22 19:16 UTC. Time now 2014-Nov-26 21:24 UTC.
Position N 35°60' W 005°11'.

Length 107 m; draft 8.3 m.

Type: Cargo ship. MMSI: 305644000.

Date/timePositionNaut miles runAvg speedWind from/ knotsBaromVisibWave heightAir tempDewpointWater temp
2014-Nov-22 19:16N 35°60' W 005°11'7 9.7
2014-Nov-22 18:33N 35°59' W 005°20'251 7.8
2014-Nov-21 10:24N 38°02' W 009°55'  
2014-Nov-14 05:32N 43°41' W 005°57'0 0.3
2014-Nov-14 04:32N 43°41' W 005°56'4 4.2
2014-Nov-14 03:29N 43°43' W 006°02'1 1.1
2014-Nov-14 02:26N 43°43' W 006°03'2 1.9
2014-Nov-14 01:34N 43°42' W 006°01'2 2.0
2014-Nov-14 00:31N 43°41' W 005°59'1 1.3
2014-Nov-13 23:25N 43°40' W 005°57'222 8.9
2014-Nov-12 22:33N 46°01' W 001°55'8 7.8
2014-Nov-12 21:34N 46°06' W 001°46'8 7.3
2014-Nov-12 20:24N 46°08' W 001°34'8 8.9
2014-Nov-12 19:33N 46°07' W 001°23'  

Dump ship's entire track history